Time;durP1;ratioP1;P1;durP2;ratioP2;P2;SDS_P1;SDS_P2;PMS_P1;PMS_P2;Temp;Humidity;BMP_temperature;BMP_pressure;BME280_temperature;BME280_humidity;BME280_pressure;Samples;Min_cycle;Max_cycle;Signal;HPM_P1;HPM_P2
2022/09/27 00:02:20;;;;;;;10.80;7.78;;;;;;;;;;5118038;28;20027;-69
2022/09/27 00:04:45;;;;;;;12.65;8.27;;;;;;;;;;5114481;28;20027;-68
2022/09/27 00:07:11;;;;;;;12.07;7.83;;;;;;;;;;5107298;27;20015;-69
2022/09/27 00:09:37;;;;;;;10.15;7.97;;;;;;;;;;5127419;27;20011;-68
2022/09/27 00:12:02;;;;;;;10.85;7.68;;;;;;;;;;5108886;27;20049;-69
2022/09/27 00:14:28;;;;;;;11.88;8.30;;;;;;;;;;5124890;27;20605;-68
2022/09/27 00:16:53;;;;;;;12.00;8.93;;;;;;;;;;5120635;27;20890;-69
2022/09/27 00:19:21;;;;;;;11.43;8.67;;;;;;;;;;5125025;27;20019;-68
2022/09/27 00:21:47;;;;;;;12.05;8.48;;;;;;;;;;5116388;27;20276;-69
2022/09/27 00:24:13;;;;;;;12.23;9.27;;;;;;;;;;5118788;27;20378;-70
2022/09/27 00:26:39;;;;;;;12.23;8.65;;;;;;;;;;5125040;27;20099;-68
2022/09/27 00:29:04;;;;;;;12.65;9.13;;;;;;;;;;5122999;27;20529;-69
2022/09/27 00:31:30;;;;;;;9.50;8.25;;;;;;;;;;5124728;27;20035;-69
2022/09/27 00:33:56;;;;;;;13.32;9.00;;;;;;;;;;5124547;27;20023;-70
2022/09/27 00:36:22;;;;;;;16.48;9.23;;;;;;;;;;5126364;27;20030;-69
2022/09/27 00:38:47;;;;;;;12.73;8.80;;;;;;;;;;5122389;27;20034;-69
2022/09/27 00:41:21;;;;;;;13.68;8.73;;;;;;;;;;5103539;27;20030;-69
2022/09/27 00:43:48;;;;;;;13.52;9.23;;;;;;;;;;5103781;27;20020;-69
2022/09/27 00:46:17;;;;;;;10.27;8.30;;;;;;;;;;5123328;27;20061;-69
2022/09/27 00:48:42;;;;;;;10.85;8.77;;;;;;;;;;5119940;27;20026;-71
2022/09/27 00:51:08;;;;;;;13.50;8.82;;;;;;;;;;5123936;27;20109;-69
2022/09/27 00:53:41;;;;;;;10.70;8.23;;;;;;;;;;5122426;27;20020;-69
2022/09/27 00:56:12;;;;;;;14.02;8.63;;;;;;;;;;5121228;27;20162;-69
2022/09/27 00:58:54;;;;;;;11.60;8.77;;;;;;;;;;5104890;27;20606;-69
2022/09/27 01:01:20;;;;;;;13.15;9.32;;;;;;;;;;5120401;27;20038;-69
2022/09/27 01:03:45;;;;;;;13.73;9.70;;;;;;;;;;5124437;27;20098;-69
2022/09/27 01:06:11;;;;;;;14.03;9.17;;;;;;;;;;5121432;27;20056;-69
2022/09/27 01:08:36;;;;;;;12.15;9.40;;;;;;;;;;5107873;27;20038;-70
2022/09/27 01:11:09;;;;;;;13.55;10.23;;;;;;;;;;5120895;27;20038;-70
2022/09/27 01:13:51;;;;;;;14.05;9.88;;;;;;;;;;5111656;27;20026;-69
2022/09/27 01:16:35;;;;;;;12.10;9.40;;;;;;;;;;5112538;27;20043;-69
2022/09/27 01:19:10;;;;;;;12.10;9.20;;;;;;;;;;5121726;27;20027;-69
2022/09/27 01:21:35;;;;;;;12.10;9.02;;;;;;;;;;5125483;27;20027;-69
2022/09/27 01:24:03;;;;;;;13.13;9.97;;;;;;;;;;5120685;27;20077;-68
2022/09/27 01:26:29;;;;;;;13.02;9.57;;;;;;;;;;5123906;27;20294;-69
2022/09/27 01:29:13;;;;;;;14.80;10.50;;;;;;;;;;5128903;27;20035;-70
2022/09/27 01:31:53;;;;;;;13.38;9.57;;;;;;;;;;5119511;27;20104;-68
2022/09/27 01:34:18;;;;;;;14.55;10.13;;;;;;;;;;5123007;27;20480;-69
2022/09/27 01:36:46;;;;;;;14.27;10.10;;;;;;;;;;5108739;27;20123;-69
2022/09/27 01:39:14;;;;;;;16.02;10.27;;;;;;;;;;5125161;27;20023;-68
2022/09/27 01:41:46;;;;;;;14.27;10.88;;;;;;;;;;5123015;27;20066;-70
2022/09/27 01:44:34;;;;;;;15.45;10.82;;;;;;;;;;5117012;27;20054;-69
2022/09/27 01:47:07;;;;;;;15.63;10.85;;;;;;;15.29;nan;99335.81;5110501;27;20485;-69
2022/09/27 01:49:39;;;;;;;16.08;11.75;;;;;;;;;;5114920;27;20568;-69
2022/09/27 01:52:06;;;;;;;20.92;11.82;;;;;;;;;;5115646;27;20062;-69
2022/09/27 01:54:38;;;;;;;19.05;12.68;;;;;;;;;;5121613;27;20036;-69
2022/09/27 01:57:04;;;;;;;18.70;12.65;;;;;;;;;;5118794;27;20026;-69
2022/09/27 01:59:32;;;;;;;19.90;11.68;;;;;;;;;;5116203;27;20169;-70
2022/09/27 02:02:01;;;;;;;16.33;11.57;;;;;;;;;;5121955;27;20023;-69
2022/09/27 02:04:29;;;;;;;18.70;11.80;;;;;;;;;;5117833;27;20065;-69
2022/09/27 02:06:58;;;;;;;15.75;11.90;;;;;;;;;;5118245;27;20032;-69
2022/09/27 02:09:32;;;;;;;13.77;10.40;;;;;;;;;;5122700;27;20011;-69
2022/09/27 02:12:00;;;;;;;19.27;11.20;;;;;;;;;;5121568;27;20034;-68
2022/09/27 02:14:26;;;;;;;16.63;10.80;;;;;;;;;;5117121;27;20019;-69
2022/09/27 02:16:51;;;;;;;18.65;11.50;;;;;;;;;;5111675;27;20053;-70
2022/09/27 02:19:19;;;;;;;14.07;10.43;;;;;;;;;;5121282;27;20031;-68
2022/09/27 02:21:56;;;;;;;14.18;10.50;;;;;;;;;;5117183;27;20038;-68
2022/09/27 02:24:23;;;;;;;12.88;9.32;;;;;;;;;;5119698;27;20424;-69
2022/09/27 02:26:56;;;;;;;13.27;9.57;;;;;;;;;;5117399;27;20074;-72
2022/09/27 02:29:29;;;;;;;16.08;9.23;;;;;;;;;;5122284;27;20015;-68
2022/09/27 02:31:55;;;;;;;16.25;9.43;;;;;;;;;;5115930;27;20125;-65
2022/09/27 02:34:22;;;;;;;12.40;8.30;;;;;;;;;;5098849;27;20110;-66
2022/09/27 02:36:47;;;;;;;10.95;9.02;;;;;;;;;;5115333;27;20287;-67
2022/09/27 02:39:13;;;;;;;14.13;9.65;;;;;;;;;;5119581;27;20023;-66
2022/09/27 02:41:38;;;;;;;13.60;9.57;;;;;;;;;;5119919;27;20015;-67
2022/09/27 02:44:05;;;;;;;14.43;9.33;;;;;;;;;;5121390;27;21748;-66
2022/09/27 02:46:31;;;;;;;13.95;10.15;;;;;;;;;;5119283;27;20783;-66
2022/09/27 02:48:59;;;;;;;12.53;9.73;;;;;;;;;;5116737;27;20023;-65
2022/09/27 02:51:51;;;;;;;13.68;9.85;;;;;;;14.88;nan;99222.25;5116267;27;20297;-66
2022/09/27 02:54:17;;;;;;;15.52;10.25;;;;;;;;;;5121646;27;20034;-66
2022/09/27 02:57:08;;;;;;;14.10;9.95;;;;;;;;;;5117331;27;20031;-66
2022/09/27 02:59:43;;;;;;;17.92;11.30;;;;;;;;;;5116576;27;20044;-65
2022/09/27 03:02:11;;;;;;;18.98;11.25;;;;;;;;;;5118040;27;20024;-65
2022/09/27 03:04:39;;;;;;;16.75;11.63;;;;;;;;;;5112003;27;20032;-66
2022/09/27 03:07:05;;;;;;;19.07;11.97;;;;;;;;;;5118641;27;20022;-64
2022/09/27 03:09:43;;;;;;;18.25;11.85;;;;;;;;;;5121777;27;20027;-65
2022/09/27 03:12:08;;;;;;;20.83;12.40;;;;;;;;;;5103010;27;20586;-65
2022/09/27 03:14:33;;;;;;;20.08;12.00;;;;;;;;;;5117392;27;20042;-65
2022/09/27 03:16:59;;;;;;;18.93;12.10;;;;;;;;;;5118919;27;20027;-65
2022/09/27 03:19:24;;;;;;;18.42;11.90;;;;;;;;;;5115482;27;20325;-65
2022/09/27 03:21:49;;;;;;;18.63;12.27;;;;;;;;;;5123176;27;20058;-66
2022/09/27 03:24:15;;;;;;;18.58;12.77;;;;;;;;;;5118175;27;20019;-66
2022/09/27 03:26:40;;;;;;;21.60;13.13;;;;;;;;;;5105509;27;20413;-66
2022/09/27 03:29:05;;;;;;;18.83;12.40;;;;;;;;;;5117842;27;20024;-65
2022/09/27 03:31:31;;;;;;;16.52;11.52;;;;;;;;;;5119551;27;20426;-66
2022/09/27 03:33:56;;;;;;;24.80;14.00;;;;;;;;;;5118287;27;20487;-64
2022/09/27 03:36:21;;;;;;;18.23;12.07;;;;;;;;;;5116674;27;20362;-65
2022/09/27 03:38:46;;;;;;;17.13;12.27;;;;;;;;;;5120593;28;20031;-65
2022/09/27 03:41:12;;;;;;;19.87;12.37;;;;;;;;;;5117143;28;20309;-65
2022/09/27 03:43:37;;;;;;;17.03;12.47;;;;;;;;;;5119321;28;20396;-66
2022/09/27 03:46:03;;;;;;;16.92;11.60;;;;;;;;;;5116645;28;20276;-65
2022/09/27 03:48:30;;;;;;;18.25;11.57;;;;;;;;;;5117552;28;20052;-64
2022/09/27 03:50:55;;;;;;;16.15;11.07;;;;;;;;;;5106497;28;20442;-66
2022/09/27 03:53:20;;;;;;;18.35;11.55;;;;;;;;;;5117895;28;20023;-66
2022/09/27 03:55:46;;;;;;;18.52;11.50;;;;;;;;;;5118049;28;20023;-66
2022/09/27 03:58:12;;;;;;;15.63;10.82;;;;;;;;;;5113010;28;20033;-66
2022/09/27 04:00:37;;;;;;;20.10;11.32;;;;;;;;;;5120789;28;20095;-66
2022/09/27 04:03:04;;;;;;;16.65;11.30;;;;;;;;;;5118619;28;20379;-66
2022/09/27 04:05:29;;;;;;;17.38;11.90;;;;;;;;;;5116129;28;20415;-65
2022/09/27 04:07:55;;;;;;;16.97;10.87;;;;;;;;;;5119395;28;20024;-66
2022/09/27 04:10:20;;;;;;;17.92;11.45;;;;;;;;;;5116690;28;20286;-67
2022/09/27 04:12:45;;;;;;;17.38;11.43;;;;;;;;;;5123663;28;20530;-66
2022/09/27 04:15:11;;;;;;;18.83;11.23;;;;;;;;;;5121224;28;20511;-66
2022/09/27 04:17:37;;;;;;;25.23;11.05;;;;;;;;;;5119643;28;20272;-65
2022/09/27 04:20:02;;;;;;;16.67;11.57;;;;;;;;;;5117521;28;20026;-66
2022/09/27 04:22:28;;;;;;;17.17;11.90;;;;;;;;;;5116575;28;20703;-66
2022/09/27 04:24:53;;;;;;;17.38;11.15;;;;;;;;;;5121482;28;20023;-66
2022/09/27 04:27:20;;;;;;;17.10;10.80;;;;;;;;;;5116294;28;20039;-66
2022/09/27 04:29:46;;;;;;;14.73;10.68;;;;;;;;;;5120369;28;20275;-66
2022/09/27 04:32:12;;;;;;;20.10;10.95;;;;;;;;;;5116054;28;20031;-66
2022/09/27 04:37:21;;;;;;;17.38;11.35;;;;;;;;;;5117190;28;20504;-66
2022/09/27 04:39:48;;;;;;;16.90;11.32;;;;;;;;;;5122670;28;20023;-67
2022/09/27 04:42:13;;;;;;;14.95;10.43;;;;;;;;;;5118012;28;20019;-65
2022/09/27 04:44:39;;;;;;;16.27;10.68;;;;;;;;;;5122578;28;20484;-66
2022/09/27 04:47:04;;;;;;;15.68;11.05;;;;;;;;;;5118143;28;20080;-66
2022/09/27 04:49:29;;;;;;;19.43;11.63;;;;;;;;;;5120364;28;20057;-64
2022/09/27 04:51:55;;;;;;;14.57;10.83;;;;;;;;;;5115376;28;21772;-66
2022/09/27 04:54:21;;;;;;;15.15;10.68;;;;;;;;;;5117423;27;20267;-65
2022/09/27 04:56:47;;;;;;;20.05;11.40;;;;;;;;;;5121643;27;20034;-65
2022/09/27 04:59:12;;;;;;;14.73;10.65;;;;;;;;;;5121168;27;20479;-66
2022/09/27 05:01:38;;;;;;;15.27;10.60;;;;;;;;;;5123668;27;20100;-66
2022/09/27 05:04:03;;;;;;;15.82;11.25;;;;;;;;;;5127532;27;20336;-65
2022/09/27 05:06:29;;;;;;;16.23;11.40;;;;;;;;;;5123289;27;20019;-65
2022/09/27 05:08:54;;;;;;;16.33;11.15;;;;;;;;;;5128158;27;20050;-65
2022/09/27 05:11:21;;;;;;;16.23;11.40;;;;;;;;;;5109268;27;20023;-69
2022/09/27 05:13:46;;;;;;;18.08;11.70;;;;;;;;;;5117244;27;20276;-69
2022/09/27 05:16:11;;;;;;;20.88;12.15;;;;;;;;;;5122958;27;20067;-68
2022/09/27 05:18:37;;;;;;;16.03;12.53;;;;;;;;;;5126258;27;20027;-71
2022/09/27 05:21:02;;;;;;;18.42;12.63;;;;;;;;;;5118664;27;20759;-68
2022/09/27 05:23:27;;;;;;;17.15;12.13;;;;;;;;;;5112566;27;20628;-69
2022/09/27 05:25:55;;;;;;;19.63;12.35;;;;;;;;;;5115097;27;20039;-68
2022/09/27 05:28:20;;;;;;;17.80;12.13;;;;;;;;;;5120792;27;20019;-69
2022/09/27 05:30:45;;;;;;;15.95;12.13;;;;;;;;;;5113690;27;20063;-68
2022/09/27 05:33:11;;;;;;;17.45;11.63;;;;;;;;;;5120096;27;20023;-69
2022/09/27 05:35:36;;;;;;;16.60;11.37;;;;;;;;;;5098761;27;21002;-68
2022/09/27 05:38:01;;;;;;;19.27;12.88;;;;;;;;;;5119038;27;20290;-68
2022/09/27 05:40:28;;;;;;;18.15;12.13;;;;;;;;;;5117452;27;20020;-70
2022/09/27 05:42:54;;;;;;;16.48;12.50;;;;;;;;;;5124549;27;20023;-69
2022/09/27 05:45:19;;;;;;;16.45;11.75;;;;;;;;;;5123369;27;20023;-69
2022/09/27 05:47:55;;;;;;;19.15;12.20;;;;;;;;;;5116942;27;20029;-68
2022/09/27 05:50:20;;;;;;;18.58;12.05;;;;;;;;;;5118917;27;20028;-69
2022/09/27 05:52:45;;;;;;;18.43;12.70;;;;;;;;;;5118501;27;20031;-69
2022/09/27 05:55:11;;;;;;;18.35;11.73;;;;;;;;;;5120938;27;20668;-69
2022/09/27 05:57:36;;;;;;;17.60;11.75;;;;;;;;;;5116416;27;20508;-68
2022/09/27 06:00:01;;;;;;;16.33;11.73;;;;;;;;;;5120526;27;20019;-68
2022/09/27 06:02:26;;;;;;;15.98;11.65;;;;;;;;;;5118598;27;20059;-68
2022/09/27 06:04:53;;;;;;;14.60;9.97;;;;;;;;;;5122140;27;20110;-68
2022/09/27 06:07:19;;;;;;;14.93;11.13;;;;;;;;;;5125618;27;20267;-68
2022/09/27 06:09:44;;;;;;;14.02;10.60;;;;;;;;;;5119682;27;20089;-68
2022/09/27 06:12:10;;;;;;;15.47;10.43;;;;;;;;;;5115952;27;20058;-69
2022/09/27 06:14:36;;;;;;;14.18;10.32;;;;;;;;;;5115846;27;20313;-69
2022/09/27 06:17:02;;;;;;;15.77;10.15;;;;;;;;;;5118886;27;20030;-68
2022/09/27 06:19:27;;;;;;;17.10;11.38;;;;;;;;;;5125608;27;20027;-68
2022/09/27 06:21:52;;;;;;;11.70;9.50;;;;;;;;;;5115781;27;20034;-68
2022/09/27 06:24:18;;;;;;;15.20;10.33;;;;;;;;;;5113728;27;20019;-68
2022/09/27 06:26:44;;;;;;;16.60;10.67;;;;;;;;;;5115274;27;20291;-68
2022/09/27 06:29:09;;;;;;;15.07;11.07;;;;;;;;;;5117752;27;20274;-68
2022/09/27 06:31:35;;;;;;;17.33;10.93;;;;;;;15.47;nan;99205.09;5118363;27;20360;-68
2022/09/27 06:34:00;;;;;;;18.45;11.50;;;;;;;;;;5119239;27;20105;-68
2022/09/27 06:36:25;;;;;;;15.57;10.63;;;;;;;;;;5118274;27;20022;-68
2022/09/27 06:38:50;;;;;;;14.70;10.53;;;;;;;;;;5117947;27;20019;-68
2022/09/27 06:41:16;;;;;;;16.27;10.30;;;;;;;;;;5116721;27;20283;-68
2022/09/27 06:43:41;;;;;;;17.17;9.98;;;;;;;;;;5117745;27;20283;-68
2022/09/27 06:46:06;;;;;;;15.23;9.07;;;;;;;;;;5116352;27;20027;-69
2022/09/27 06:48:32;;;;;;;14.17;9.27;;;;;;;;;;5117536;27;20061;-69
2022/09/27 06:50:58;;;;;;;16.70;9.15;;;;;;;;;;5118497;27;20305;-68
2022/09/27 06:53:23;;;;;;;13.13;8.88;;;;;;;;;;5115509;27;20035;-68
2022/09/27 06:55:50;;;;;;;11.00;8.65;;;;;;;;;;5105193;27;20496;-68
2022/09/27 07:01:00;;;;;;;13.55;9.55;;;;;;;;;;5117961;27;20408;-69
2022/09/27 07:03:30;;;;;;;15.15;9.88;;;;;;;;;;5117633;27;20019;-69
2022/09/27 07:06:02;;;;;;;14.45;9.93;;;;;;;;;;5116161;27;20046;-68
2022/09/27 07:08:28;;;;;;;17.67;10.45;;;;;;;;;;5114477;27;20027;-69
2022/09/27 07:11:04;;;;;;;16.73;10.65;;;;;;;;;;5117741;27;20079;-69
2022/09/27 07:13:31;;;;;;;19.85;10.88;;;;;;;;;;5116047;27;20392;-68
2022/09/27 07:15:57;;;;;;;18.13;11.30;;;;;;;;;;5114713;27;20069;-68
2022/09/27 07:18:22;;;;;;;16.45;10.85;;;;;;;;;;5118511;27;20055;-69
2022/09/27 07:20:48;;;;;;;14.27;10.68;;;;;;;;;;5115213;27;20064;-69
2022/09/27 07:23:14;;;;;;;15.82;11.35;;;;;;;;;;5117641;27;20024;-70
2022/09/27 07:25:39;;;;;;;14.20;10.53;;;;;;;;;;5114830;27;20421;-70
2022/09/27 07:28:06;;;;;;;16.53;9.90;;;;;;;;;;5118962;27;20019;-68
2022/09/27 07:30:32;;;;;;;13.43;10.20;;;;;;;;;;5099743;28;20290;-70
2022/09/27 07:32:58;;;;;;;12.68;9.20;;;;;;;;;;5106577;27;20034;-70
2022/09/27 07:35:24;;;;;;;12.48;8.77;;;;;;;;;;5121157;27;20490;-71
2022/09/27 07:37:49;;;;;;;12.68;8.82;;;;;;;;;;5106357;27;20034;-69
2022/09/27 07:40:14;;;;;;;15.43;9.50;;;;;;;;;;5119778;28;20016;-69
2022/09/27 07:42:40;;;;;;;11.95;8.95;;;;;;;;;;5115162;28;20032;-70
2022/09/27 07:45:06;;;;;;;13.20;8.38;;;;;;;;;;5122747;28;20019;-70
2022/09/27 07:47:32;;;;;;;9.77;7.47;;;;;;;;;;5107600;28;20076;-70
2022/09/27 07:49:57;;;;;;;11.70;7.72;;;;;;;;;;5121303;28;20020;-69
2022/09/27 07:52:22;;;;;;;14.45;10.38;;;;;;;;;;5099468;28;20031;-71
2022/09/27 07:54:48;;;;;;;10.80;8.45;;;;;;;;;;5098313;28;20024;-69
2022/09/27 07:57:13;;;;;;;13.52;10.18;;;;;;;;;;5121637;28;20144;-69
2022/09/27 07:59:39;;;;;;;15.98;11.38;;;;;;;;;;5121847;28;20024;-69
2022/09/27 08:02:05;;;;;;;13.90;10.13;;;;;;;;;;5107386;28;20051;-71
2022/09/27 08:04:30;;;;;;;11.43;8.77;;;;;;;;;;5119934;28;20070;-69
2022/09/27 08:06:55;;;;;;;12.50;9.00;;;;;;;;;;5122358;28;20027;-69
2022/09/27 08:09:21;;;;;;;13.17;8.37;;;;;;;;;;5122090;28;20686;-70
2022/09/27 08:11:47;;;;;;;9.80;7.20;;;;;;;;;;5121638;28;20317;-70
2022/09/27 08:14:13;;;;;;;7.40;6.63;;;;;;;;;;5118631;28;20019;-70
2022/09/27 08:16:38;;;;;;;8.18;6.50;;;;;;;;;;5117683;28;20031;-70
2022/09/27 08:19:04;;;;;;;11.45;5.90;;;;;;;;;;5100181;28;20032;-70
2022/09/27 08:21:29;;;;;;;8.90;5.43;;;;;;;;;;5116973;28;20035;-70
2022/09/27 08:23:55;;;;;;;7.88;5.95;;;;;;;;;;5110751;28;20302;-68
2022/09/27 08:26:20;;;;;;;8.43;4.90;;;;;;;;;;5118102;28;20047;-71
2022/09/27 08:28:46;;;;;;;7.05;5.32;;;;;;;;;;5122369;27;20023;-71
2022/09/27 08:31:11;;;;;;;6.85;5.75;;;;;;;;;;5119564;27;20027;-72
2022/09/27 08:33:37;;;;;;;8.10;6.43;;;;;;;16.78;nan;99050.13;5105572;27;20027;-69
2022/09/27 08:36:02;;;;;;;8.77;5.93;;;;;;;;;;5123122;27;20274;-71
2022/09/27 08:38:27;;;;;;;9.60;5.15;;;;;;;;;;5121464;27;20465;-71
2022/09/27 08:40:54;;;;;;;7.75;6.30;;;;;;;;;;5124743;27;20063;-69
2022/09/27 08:43:29;;;;;;;7.70;5.85;;;;;;;;;;5124385;27;20045;-72
2022/09/27 08:46:02;;;;;;;10.73;5.70;;;;;;;;;;5125547;27;20482;-71
2022/09/27 08:48:29;;;;;;;8.60;5.50;;;;;;;;;;5099957;27;20051;-70
2022/09/27 08:50:55;;;;;;;6.00;5.00;;;;;;;16.63;nan;99111.56;5121506;27;20024;-72
2022/09/27 08:53:29;;;;;;;6.57;4.25;;;;;;;;;;5118004;27;20019;-71
2022/09/27 08:55:56;;;;;;;4.22;3.70;;;;;;;;;;5123486;27;20544;-72
2022/09/27 08:58:28;;;;;;;5.10;3.95;;;;;;;;;;5126648;27;20069;-71
2022/09/27 09:00:59;;;;;;;4.70;3.97;;;;;;;;;;5118088;27;20076;-72
2022/09/27 09:03:25;;;;;;;8.32;4.07;;;;;;;;;;5122612;27;20114;-70
2022/09/27 09:06:14;;;;;;;4.35;3.20;;;;;;;;;;5125505;27;20027;-70
2022/09/27 09:08:42;;;;;;;5.63;3.00;;;;;;;;;;5116413;27;20067;-69
2022/09/27 09:14:05;;;;;;;8.60;3.00;;;;;;;;;;5125094;27;20038;-70
2022/09/27 09:16:42;;;;;;;5.03;2.83;;;;;;;;;;5122722;27;20030;-71
2022/09/27 09:19:20;;;;;;;7.07;3.88;;;;;;;;;;5122771;27;20028;-70
2022/09/27 09:21:48;;;;;;;6.40;4.25;;;;;;;;;;5117872;27;20156;-70
2022/09/27 09:24:13;;;;;;;5.03;2.97;;;;;;;;;;5118537;27;20027;-70
2022/09/27 09:26:44;;;;;;;5.03;2.85;;;;;;;;;;5108984;27;20410;-69
2022/09/27 09:29:12;;;;;;;3.70;2.95;;;;;;;;;;5101757;28;20019;-69
2022/09/27 09:31:37;;;;;;;4.78;3.90;;;;;;;;;;5103012;28;20027;-71
2022/09/27 09:34:05;;;;;;;9.47;4.70;;;;;;;;;;5105739;28;20377;-72
2022/09/27 09:36:55;;;;;;;6.03;3.88;;;;;;;;;;5103151;28;20264;-71
2022/09/27 09:39:30;;;;;;;6.18;3.38;;;;;;;;;;5102975;28;20409;-70
2022/09/27 09:42:18;;;;;;;3.85;3.28;;;;;;;;;;5102831;28;20068;-72
2022/09/27 09:45:02;;;;;;;7.87;3.70;;;;;;;;;;5095358;28;20019;-71
2022/09/27 09:47:43;;;;;;;5.80;3.67;;;;;;;;;;5107476;28;20028;-71
2022/09/27 09:50:26;;;;;;;3.95;3.30;;;;;;;;;;5106174;28;20028;-70
2022/09/27 09:53:13;;;;;;;5.18;3.35;;;;;;;;;;5106411;28;20027;-71
2022/09/27 09:55:41;;;;;;;3.40;3.08;;;;;;;;;;5095182;28;20059;-70
2022/09/27 09:58:15;;;;;;;3.22;2.92;;;;;;;;;;5103090;28;20066;-71
2022/09/27 10:00:41;;;;;;;4.95;3.08;;;;;;;;;;5098120;28;20028;-71
2022/09/27 10:03:06;;;;;;;4.60;3.17;;;;;;;;;;5094208;28;20049;-71
2022/09/27 10:05:32;;;;;;;3.45;2.88;;;;;;;;;;5107730;28;20112;-71
2022/09/27 10:08:00;;;;;;;4.03;3.00;;;;;;;;;;5106685;28;20034;-70
2022/09/27 10:10:26;;;;;;;4.88;2.90;;;;;;;;;;5100485;28;20034;-71
2022/09/27 10:12:51;;;;;;;4.70;3.10;;;;;;;;;;5096005;28;20020;-71
2022/09/27 10:15:25;;;;;;;4.30;2.92;;;;;;;;;;5100945;28;20036;-72
2022/09/27 10:17:52;;;;;;;4.20;3.10;;;;;;;;;;5101269;28;20030;-71
2022/09/27 10:20:25;;;;;;;4.85;3.20;;;;;;;;;;5096715;28;20099;-72
2022/09/27 10:22:54;;;;;;;3.40;2.65;;;;;;;;;;5095680;28;20027;-72
2022/09/27 10:25:20;;;;;;;3.55;2.72;;;;;;;;;;5110299;27;20056;-72
2022/09/27 10:27:47;;;;;;;3.55;2.72;;;;;;;;;;5100789;28;20026;-71
2022/09/27 10:30:22;;;;;;;3.50;2.70;;;;;;;;;;5102457;28;20488;-72
2022/09/27 10:32:49;;;;;;;3.30;2.70;;;;;;;;;;5100690;28;20024;-72
2022/09/27 10:35:19;;;;;;;3.08;2.78;;;;;;;;;;5103312;28;20038;-71
2022/09/27 10:37:45;;;;;;;4.45;2.80;;;;;;;;;;5101419;28;20028;-71
2022/09/27 10:40:39;;;;;;;4.33;2.97;;;;;;;;;;5100703;28;20026;-72
2022/09/27 10:43:22;;;;;;;4.07;2.60;;;;;;;;;;5086500;28;20283;-71
2022/09/27 10:45:48;;;;;;;5.22;3.00;;;;;;;;;;5097775;28;20028;-71
2022/09/27 10:48:22;;;;;;;4.28;3.05;;;;;;;;;;5101740;28;20035;-71
2022/09/27 10:50:58;;;;;;;4.10;2.97;;;;;;;;;;5094967;28;20067;-71
2022/09/27 10:53:24;;;;;;;3.42;2.60;;;;;;;;;;5098174;28;20104;-71
2022/09/27 10:55:50;;;;;;;3.65;3.00;;;;;;;;;;5097287;28;20054;-72
2022/09/27 10:58:36;;;;;;;2.90;2.60;;;;;;;;;;5114113;27;20092;-71
2022/09/27 11:01:11;;;;;;;3.83;3.42;;;;;;;;;;5098995;28;20063;-70
2022/09/27 11:03:38;;;;;;;4.03;3.15;;;;;;;;;;5097612;28;20054;-71
2022/09/27 11:06:21;;;;;;;5.75;3.33;;;;;;;;;;5111711;27;20110;-72
2022/09/27 11:08:48;;;;;;;3.75;3.00;;;;;;;;;;5100429;28;20106;-71
2022/09/27 11:11:13;;;;;;;3.80;3.15;;;;;;;;;;5106914;28;20020;-69
2022/09/27 11:13:39;;;;;;;4.07;3.20;;;;;;;;;;5105069;28;20039;-71
2022/09/27 11:16:56;;;;;;;3.65;2.92;;;;;;;18.13;nan;99012.03;5095232;28;20284;-72
2022/09/27 11:19:37;;;;;;;3.00;2.60;;;;;;;18.13;nan;98996.84;5084886;28;20493;-71
2022/09/27 11:22:28;;;;;;;3.67;3.10;;;;;;;18.09;nan;99005.75;5104495;28;20028;-71
2022/09/27 11:24:56;;;;;;;4.88;3.03;;;;;;;;;;5099840;28;20028;-72
2022/09/27 11:27:34;;;;;;;6.38;3.38;;;;;;;;;;5105954;28;20523;-72
2022/09/27 11:30:19;;;;;;;4.30;3.15;;;;;;;18.10;nan;99002.00;5099700;28;20059;-68
2022/09/27 11:32:57;;;;;;;5.90;3.55;;;;;;;18.11;nan;98992.91;5097864;28;20024;-68
2022/09/27 11:35:40;;;;;;;9.77;5.20;;;;;;;18.12;nan;98987.25;5103706;28;20363;-69
2022/09/27 11:38:29;;;;;;;4.93;4.10;;;;;;;18.11;nan;98988.38;5102437;28;20102;-68
2022/09/27 11:41:07;;;;;;;6.50;4.05;;;;;;;;;;5103226;28;20070;-71
2022/09/27 11:44:14;;;;;;;5.57;5.00;;;;;;;18.10;nan;98986.00;5097722;28;20049;-71
2022/09/27 11:46:41;;;;;;;7.65;6.35;;;;;;;18.07;nan;98966.88;5041380;28;20111;-71
2022/09/27 11:49:12;;;;;;;4.32;3.92;;;;;;;18.10;nan;98970.03;5038778;28;20555;-71
2022/09/27 11:51:47;;;;;;;4.88;4.22;;;;;;;18.07;nan;98958.88;5037549;28;20502;-71
2022/09/27 11:54:37;;;;;;;4.70;4.30;;;;;;;18.07;nan;98980.19;5028151;28;20024;-71
2022/09/27 11:57:02;;;;;;;6.28;5.03;;;;;;;;;;5040639;28;20057;-71
2022/09/27 11:59:47;;;;;;;6.70;4.80;;;;;;;17.97;nan;98945.84;5041098;28;20107;-70
2022/09/27 12:02:23;;;;;;;4.68;4.18;;;;;;;;;;5023097;28;20534;-71
2022/09/27 12:04:51;;;;;;;5.35;4.15;;;;;;;18.06;nan;98967.97;5048751;28;20127;-69
2022/09/27 12:07:33;;;;;;;4.80;3.95;;;;;;;18.06;nan;98946.66;5030628;28;20032;-69
2022/09/27 12:10:01;;;;;;;4.93;4.45;;;;;;;;;;5032415;28;20533;-70
2022/09/27 12:12:31;;;;;;;6.53;4.68;;;;;;;;;;5030503;28;20017;-70
2022/09/27 12:15:01;;;;;;;7.20;4.65;;;;;;;;;;5047244;28;20103;-70
2022/09/27 12:17:28;;;;;;;5.60;4.95;;;;;;;;;;5042766;28;20057;-70
2022/09/27 12:19:57;;;;;;;6.32;5.00;;;;;;;17.69;nan;98917.88;5046649;28;20393;-70
2022/09/27 12:22:34;;;;;;;8.10;5.47;;;;;;;;;;5047837;28;20037;-70
2022/09/27 12:25:00;;;;;;;11.35;7.03;;;;;;;;;;5105749;27;20378;-69
2022/09/27 12:27:36;;;;;;;13.15;7.13;;;;;;;17.93;nan;98909.50;5123789;27;20030;-70
2022/09/27 12:30:03;;;;;;;6.75;5.38;;;;;;;;;;5112161;27;20023;-70
2022/09/27 12:32:37;;;;;;;11.77;9.02;;;;;;;;;;5119024;27;20473;-70
2022/09/27 12:35:17;;;;;;;12.93;8.20;;;;;;;17.76;nan;98862.28;5119275;27;20501;-69
2022/09/27 12:37:47;;;;;;;7.35;5.10;;;;;;;;;;5123504;27;20051;-70
2022/09/27 12:40:21;;;;;;;5.70;4.93;;;;;;;;;;5124467;27;20472;-70
2022/09/27 12:42:52;;;;;;;6.32;5.28;;;;;;;;;;5118181;27;20031;-71
2022/09/27 12:45:21;;;;;;;8.63;4.75;;;;;;;;;;5122113;27;20023;-71
2022/09/27 12:48:07;;;;;;;9.32;4.88;;;;;;;;;;5121066;27;20158;-72
2022/09/27 12:50:41;;;;;;;4.95;4.13;;;;;;;;;;5120071;27;20039;-71
2022/09/27 12:53:17;;;;;;;5.70;4.30;;;;;;;17.89;nan;98861.41;5119081;27;20027;-72
2022/09/27 12:55:51;;;;;;;5.90;4.45;;;;;;;;;;5121428;27;20023;-71
2022/09/27 12:58:17;;;;;;;8.60;4.70;;;;;;;;;;5117717;27;20027;-71
2022/09/27 13:00:51;;;;;;;6.80;4.47;;;;;;;;;;5109417;27;20030;-71
2022/09/27 13:03:34;;;;;;;7.70;4.90;;;;;;;;;;5122873;27;20023;-71
2022/09/27 13:06:02;;;;;;;6.22;4.80;;;;;;;;;;5122411;27;20020;-71
2022/09/27 13:08:47;;;;;;;6.90;4.85;;;;;;;;;;5124045;27;20019;-71
2022/09/27 13:11:30;;;;;;;5.55;4.90;;;;;;;;;;5120453;27;20504;-71
2022/09/27 13:13:58;;;;;;;7.38;5.90;;;;;;;;;;5114865;27;20076;-71
2022/09/27 13:16:24;;;;;;;8.63;5.75;;;;;;;;;;5117011;27;20119;-73
2022/09/27 13:18:54;;;;;;;11.07;5.40;;;;;;;;;;5121195;27;20763;-70
2022/09/27 13:21:47;;;;;;;6.28;4.65;;;;;;;17.88;nan;98870.47;5123592;27;20023;-70
2022/09/27 13:24:28;;;;;;;5.60;5.00;;;;;;;;;;5118666;27;20020;-70
2022/09/27 13:26:54;;;;;;;8.20;4.97;;;;;;;;;;5120685;27;20056;-70
2022/09/27 13:29:25;;;;;;;6.22;4.70;;;;;;;;;;5120023;27;20019;-70
2022/09/27 13:31:53;;;;;;;6.20;5.25;;;;;;;;;;5124362;27;20574;-70
2022/09/27 13:34:38;;;;;;;6.30;5.70;;;;;;;;;;5100434;27;20542;-70
2022/09/27 13:37:22;;;;;;;7.18;5.05;;;;;;;;;;5124460;27;20035;-70
2022/09/27 13:39:48;;;;;;;6.30;5.40;;;;;;;;;;5118852;27;20035;-71
2022/09/27 13:42:19;;;;;;;7.30;6.53;;;;;;;;;;5121477;27;20152;-70
2022/09/27 13:44:53;;;;;;;9.02;6.13;;;;;;;;;;5121572;27;20031;-69
2022/09/27 13:47:39;;;;;;;7.97;6.28;;;;;;;;;;5118673;27;20040;-67
2022/09/27 13:50:19;;;;;;;6.97;5.75;;;;;;;;;;5117379;27;20023;-66
2022/09/27 13:52:54;;;;;;;6.85;5.18;;;;;;;;;;5122747;27;20548;-67
2022/09/27 13:55:40;;;;;;;5.35;4.85;;;;;;;;;;5122485;27;20053;-66
2022/09/27 13:58:17;;;;;;;6.97;4.60;;;;;;;;;;5115313;27;20342;-68
2022/09/27 14:00:48;;;;;;;8.07;4.72;;;;;;;17.70;nan;98824.38;5120572;27;20489;-68
2022/09/27 14:03:37;;;;;;;5.03;4.53;;;;;;;;;;5117524;27;20058;-68
2022/09/27 14:06:05;;;;;;;8.95;4.40;;;;;;;;;;5118389;27;20903;-69
2022/09/27 14:08:30;;;;;;;6.38;4.05;;;;;;;;;;5107437;28;20032;-68
2022/09/27 14:10:57;;;;;;;5.43;3.83;;;;;;;;;;5109107;27;20026;-68
2022/09/27 14:13:24;;;;;;;5.97;4.10;;;;;;;;;;5121533;27;20031;-69
2022/09/27 14:15:50;;;;;;;6.10;4.00;;;;;;;;;;5118955;27;20047;-69
2022/09/27 14:18:15;;;;;;;5.70;3.67;;;;;;;;;;5104589;27;20031;-69
2022/09/27 14:20:43;;;;;;;6.90;4.15;;;;;;;;;;5117891;27;20023;-68
2022/09/27 14:23:20;;;;;;;4.22;3.70;;;;;;;;;;5117862;27;20135;-68
2022/09/27 14:25:47;;;;;;;4.22;3.78;;;;;;;;;;5115800;27;20516;-69
2022/09/27 14:28:20;;;;;;;4.20;3.80;;;;;;;;;;5119856;27;20023;-68
2022/09/27 14:30:46;;;;;;;3.92;3.53;;;;;;;;;;5119032;27;20027;-68
2022/09/27 14:33:28;;;;;;;4.22;3.83;;;;;;;;;;5116408;27;20466;-68
2022/09/27 14:38:40;;;;;;;6.88;4.00;;;;;;;;;;5117116;27;20038;-69
2022/09/27 14:41:07;;;;;;;6.90;4.45;;;;;;;;;;5117064;27;20019;-69
2022/09/27 14:43:33;;;;;;;6.03;4.70;;;;;;;;;;5114061;27;20028;-68